P&o Nedlloyd Regina — A8DH2 — position and weather

sailwx.info

Track history (hours):
 
Tides and Currents Weather Stations Pressure Air Temp Water Temp Dewpoint Dewpoint Depression Visibility Wind Speed Wind Dir Waves Ship Positions

P&o Nedlloyd Regina

Last reported at 2017-Dec-15 12:00 UTC. Time now 2017-Dec-15 12:07 UTC.
Position N 50°28' W 000°13'.

Length 210 m; draft 8.1 m.

Type: Ship (hazmat cat A). MMSI: 636016796.

Date/timePositionNaut miles runAvg speedWind from/ knotsBaromVisibWave heightAir tempDewpointWater temp
2017-Dec-15 12:00N 50°28' W 000°13'714.6
2017-Dec-15 11:30N 50°30' W 000°02'714.6
2017-Dec-15 11:01N 50°32' E 000°09'714.5
2017-Dec-15 10:30N 50°34' E 000°20'714.1
2017-Dec-15 10:00N 50°36' E 000°31'713.5
2017-Dec-15 09:30N 50°39' E 000°40'713.5
2017-Dec-15 09:00N 50°43' E 000°48'713.0
2017-Dec-15 08:30N 50°47' E 000°57'612.9
2017-Dec-15 08:01N 50°51' E 001°05'813.3
2017-Dec-15 07:26N 50°56' E 001°13'613.8
2017-Dec-15 07:00N 51°01' E 001°20'714.7
2017-Dec-15 06:30N 51°05' E 001°28'815.7
2017-Dec-15 06:00N 51°10' E 001°38'815.3
2017-Dec-15 05:30N 51°16' E 001°46'815.3
2017-Dec-15 05:00N 51°23' E 001°51'713.8
2017-Dec-15 04:30N 51°30' E 001°51'714.3
2017-Dec-15 04:01N 51°36' E 001°46'1812.1
2017-Dec-15 02:31N 51°53' E 001°34'11 7.1
2017-Dec-15 01:00N 51°57' E 001°18'0 0.0
2017-Dec-15 00:30N 51°57' E 001°18'0 0.0
2017-Dec-14 18:30N 51°57' E 001°18'0 0.0
2017-Dec-14 18:00N 51°57' E 001°18'0 0.0
2017-Dec-14 17:30N 51°57' E 001°18'0 0.0
2017-Dec-14 16:59N 51°57' E 001°18'0 0.0
2017-Dec-14 16:29N 51°57' E 001°18'0 0.0
2017-Dec-14 16:00N 51°57' E 001°18'7 7.0
2017-Dec-14 15:00N 51°56' E 001°29'611.4
2017-Dec-14 14:31N 51°52' E 001°35'4 7.9
2017-Dec-14 14:00N 51°51' E 001°41'3 6.2
2017-Dec-14 13:30N 51°54' E 001°44'1 2.5
2017-Dec-14 12:59N 51°55' E 001°42'0 0.1
2017-Dec-14 12:29N 51°55' E 001°42'0 0.0
2017-Dec-14 11:59N 51°55' E 001°42'0 0.0
2017-Dec-14 11:28N 51°55' E 001°42'0 0.0
2017-Dec-14 10:58N 51°55' E 001°42'0 0.0
2017-Dec-14 10:28N 51°55' E 001°42'0 0.0
2017-Dec-14 09:58N 51°55' E 001°42'0 0.1
2017-Dec-14 09:30N 51°55' E 001°42'0 0.0
2017-Dec-14 09:00N 51°55' E 001°42'0 0.0
2017-Dec-14 08:30N 51°55' E 001°42'0 0.0
2017-Dec-14 08:00N 51°55' E 001°42'0 0.0
2017-Dec-14 07:30N 51°55' E 001°42'0 0.0
2017-Dec-14 06:59N 51°55' E 001°42'0 0.0
2017-Dec-14 06:29N 51°55' E 001°42'0 0.0
2017-Dec-14 05:59N 51°55' E 001°42'0 0.0
2017-Dec-14 05:29N 51°55' E 001°42'0 0.0
2017-Dec-14 04:59N 51°55' E 001°42'0 0.0
2017-Dec-14 04:28N 51°55' E 001°42'0 0.0
2017-Dec-14 03:58N 51°55' E 001°42'0 0.0
2017-Dec-14 03:28N 51°55' E 001°42'0 0.0
2017-Dec-14 02:58N 51°55' E 001°42'0 0.0
2017-Dec-14 02:30N 51°55' E 001°42'0 0.0
2017-Dec-14 02:00N 51°55' E 001°42'0 0.0
2017-Dec-14 01:30N 51°55' E 001°42'0 0.0
2017-Dec-14 01:00N 51°55' E 001°42'0 0.0
2017-Dec-14 00:30N 51°55' E 001°42'0 0.1
2017-Dec-13 23:59N 51°55' E 001°42'0 0.0
2017-Dec-13 23:29N 51°55' E 001°42'0 0.0
2017-Dec-13 22:59N 51°55' E 001°42'0 0.0
2017-Dec-13 22:29N 51°55' E 001°42'0 0.0
2017-Dec-13 21:58N 51°55' E 001°42'0 0.0
2017-Dec-13 21:28N 51°55' E 001°42'0 0.0
2017-Dec-13 20:58N 51°55' E 001°42'0 0.0
2017-Dec-13 20:28N 51°55' E 001°42'0 0.0
2017-Dec-13 19:58N 51°55' E 001°42'0 0.0
2017-Dec-13 19:30N 51°55' E 001°42'0 0.0
2017-Dec-13 19:00N 51°55' E 001°42'0 0.0
2017-Dec-13 18:30N 51°55' E 001°42'0 0.1
2017-Dec-13 18:00N 51°54' E 001°42'0 0.0
2017-Dec-13 17:30N 51°54' E 001°42'0 0.1
2017-Dec-13 16:59N 51°55' E 001°42'0 0.1
2017-Dec-13 16:29N 51°55' E 001°42'0 0.1
2017-Dec-13 15:59N 51°55' E 001°42'0 0.0
2017-Dec-13 15:29N 51°55' E 001°42'0 0.0
2017-Dec-13 14:58N 51°55' E 001°42'0 0.0
2017-Dec-13 14:28N 51°55' E 001°42'0 0.0
2017-Dec-13 13:58N 51°55' E 001°42'0 0.0
2017-Dec-13 13:28N 51°55' E 001°42'0 0.0
2017-Dec-13 12:58N 51°55' E 001°42'0 0.0
2017-Dec-13 12:30N 51°55' E 001°42'0 0.0
2017-Dec-13 12:00N 51°55' E 001°42'0 0.1
2017-Dec-13 11:30N 51°55' E 001°42'1 1.3
2017-Dec-13 11:00N 51°54' E 001°43'5 9.7
2017-Dec-13 10:31N 51°51' E 001°49'510.8
2017-Dec-13 10:00N 51°51' E 001°57'612.2
2017-Dec-13 09:30N 51°54' E 002°06'39 5.8
2017-Dec-13 02:43N 52°03' E 003°08'7 9.5
2017-Dec-13 01:58N 52°03' E 003°20'6 9.5
2017-Dec-13 01:19N 52°03' E 003°30'6 9.5
2017-Dec-13 00:41N 52°03' E 003°40'2 8.9
2017-Dec-13 00:24N 52°03' E 003°44'4 8.6
2017-Dec-12 23:59N 52°03' E 003°50'4 7.7
2017-Dec-12 23:30N 52°02' E 003°55'4 8.2
2017-Dec-12 23:00N 52°00' E 004°01'3 5.7
2017-Dec-12 22:30N 51°58' E 004°04'2 4.6
2017-Dec-12 22:00N 51°59' E 004°00'1 2.4
2017-Dec-12 21:27N 51°57' E 004°00'0 0.0
2017-Dec-12 21:00N 51°57' E 004°00'0 0.0
2017-Dec-12 20:27N 51°57' E 004°00'0 0.0
2017-Dec-12 19:59N 51°57' E 004°00'0 0.0
2017-Dec-12 19:29N 51°57' E 004°00'0 0.0
2017-Dec-12 18:59N 51°57' E 004°00'0 0.0
2017-Dec-12 18:29N 51°57' E 004°00'0 0.0
2017-Dec-12 17:56N 51°57' E 004°00'0 0.0
2017-Dec-12 17:28N 51°57' E 004°00'0 0.0
2017-Dec-12 16:58N 51°57' E 004°00'0 0.0
2017-Dec-12 16:25N 51°57' E 004°00'0 1.2
2017-Dec-12 16:00N 51°58' E 004°00'2 3.6
2017-Dec-12 15:30N 51°58' E 004°03'1 2.1
2017-Dec-12 15:00N 51°59' E 004°04'5 9.3
2017-Dec-12 14:30N 51°60' E 003°57'612.3
2017-Dec-12 14:00N 52°00' E 003°47'611.2
2017-Dec-12 13:30N 52°03' E 003°39'1110.1
2017-Dec-12 12:28N 52°14' E 003°39'1 1.3
2017-Dec-12 12:00N 52°14' E 003°39'2 0.8
2017-Dec-12 09:17N 52°14' E 003°35'310.0
2017-Dec-12 09:00N 52°16' E 003°33'3415.1
2017-Dec-12 06:45N 52°49' E 003°49'1418.9
2017-Dec-12 05:59N 52°60' E 004°05'4318.1
2017-Dec-12 03:38N 53°32' E 004°51'317.7
2017-Dec-12 03:28N 53°33' E 004°56'817.3
2017-Dec-12 03:00N 53°36' E 005°08'1017.1
2017-Dec-12 02:27N 53°39' E 005°24'717.1
2017-Dec-12 02:00N 53°41' E 005°36'7918.1
2017-Dec-11 21:38N 54°01' E 007°46'419.0
2017-Dec-11 21:25N 54°01' E 007°53'818.8
2017-Dec-11 20:59N 54°00' E 008°07'714.2
2017-Dec-11 20:30N 54°00' E 008°18'1019.5
2017-Dec-11 20:00N 53°58' E 008°34'816.7
2017-Dec-11 19:30N 53°52' E 008°44'714.7
2017-Dec-11 19:00N 53°51' E 008°57'714.5
2017-Dec-11 18:30N 53°53' E 009°08'4 7.6
2017-Dec-11 18:00N 53°53' E 009°15'612.5
2017-Dec-11 17:30N 53°48' E 009°23'612.0
2017-Dec-11 17:01N 53°43' E 009°28'611.1
2017-Dec-11 16:31N 53°38' E 009°32'714.3
2017-Dec-11 16:00N 53°34' E 009°42'611.7
2017-Dec-11 15:30N 53°33' E 009°51'5 9.6
2017-Dec-11 15:00N 53°32' E 009°59'0 0.8
2017-Dec-11 14:28N 53°32' E 009°60'0 0.0
2017-Dec-11 13:58N 53°32' E 009°60'0 0.0
2017-Dec-11 13:28N 53°32' E 009°60'0 0.0
2017-Dec-11 12:58N 53°32' E 009°60'0 0.0
2017-Dec-11 12:28N 53°32' E 009°60'0 0.0
2017-Dec-11 12:00N 53°32' E 009°60'0 0.0
2017-Dec-11 11:30N 53°32' E 009°60'0 0.0
2017-Dec-11 11:00N 53°32' E 009°60'0 0.0
2017-Dec-11 10:30N 53°32' E 009°60'0 0.0
2017-Dec-11 09:56N 53°32' E 009°60'0 0.0
2017-Dec-11 09:29N 53°32' E 009°60'0 0.0
2017-Dec-11 08:59N 53°32' E 009°60'0 0.0
2017-Dec-11 08:29N 53°32' E 009°60'0 0.0
2017-Dec-11 07:59N 53°32' E 009°60'0 0.0
2017-Dec-11 07:28N 53°32' E 009°60'0 0.0
2017-Dec-11 06:58N 53°32' E 009°60'0 0.0
2017-Dec-11 06:28N 53°32' E 009°60'0 0.0
2017-Dec-11 05:58N 53°32' E 009°60'0 0.0
2017-Dec-11 05:31N 53°32' E 009°60'0 0.0
2017-Dec-11 05:00N 53°32' E 009°60'0 0.8
2017-Dec-11 04:31N 53°32' E 009°59'2 5.0
2017-Dec-11 04:01N 53°32' E 009°55'510.0
2017-Dec-11 03:31N 53°33' E 009°47'612.3
2017-Dec-11 03:00N 53°35' E 009°37'611.7
2017-Dec-11 02:30N 53°40' E 009°31'613.0
2017-Dec-11 02:00N 53°45' E 009°25'714.1
2017-Dec-11 01:30N 53°51' E 009°19'612.8
2017-Dec-11 01:00N 53°53' E 009°08'510.4
2017-Dec-11 00:30N 53°51' E 008°60'714.7
2017-Dec-11 00:00N 53°50' E 008°48'5 9.7
2017-Dec-10 23:30N 53°54' E 008°42'713.7
2017-Dec-10 23:00N 53°58' E 008°33'714.2
2017-Dec-10 22:31N 53°59' E 008°21'712.1
2017-Dec-10 21:57N 53°60' E 008°09'4 9.8
2017-Dec-10 21:30N 53°59' E 008°02'5 9.4
2017-Dec-10 21:00N 53°58' E 007°54'86 9.9
2017-Dec-10 12:18N 53°36' E 005°33'512.2
2017-Dec-10 11:55N 53°35' E 005°26'512.1
2017-Dec-10 11:30N 53°34' E 005°17'611.8
2017-Dec-10 11:00N 53°32' E 005°08'611.8
2017-Dec-10 10:30N 53°30' E 004°59'612.0
2017-Dec-10 10:00N 53°28' E 004°49'611.9
2017-Dec-10 09:30N 53°25' E 004°41'612.0
2017-Dec-10 08:59N 53°19' E 004°38'612.5
2017-Dec-10 08:30N 53°13' E 004°34'612.6
2017-Dec-10 08:00N 53°08' E 004°29'612.5
2017-Dec-10 07:30N 53°02' E 004°23'612.3
2017-Dec-10 07:00N 52°57' E 004°20'612.1
2017-Dec-10 06:30N 52°51' E 004°15'611.5
2017-Dec-10 06:00N 52°47' E 004°10'510.9
2017-Dec-10 05:30N 52°43' E 004°03'510.7
2017-Dec-10 05:00N 52°39' E 003°57'510.6
2017-Dec-10 04:30N 52°35' E 003°51'510.4
2017-Dec-10 04:00N 52°31' E 003°45'510.1
2017-Dec-10 03:29N 52°27' E 003°40'42 8.5
2017-Dec-09 22:35N 51°49' E 003°11'110.3
2017-Dec-09 22:28N 51°50' E 003°13'2 3.7
2017-Dec-09 21:56N 51°51' E 003°15'1 1.5
2017-Dec-09 21:22N 51°51' E 003°14'1 1.7
2017-Dec-09 20:55N 51°51' E 003°13'1 0.8
2017-Dec-09 19:30N 51°52' E 003°14'19 4.7
2017-Dec-09 15:27N 51°34' E 003°25'611.8
2017-Dec-09 14:59N 51°29' E 003°30'510.6
2017-Dec-09 14:30N 51°26' E 003°36'3 6.2
2017-Dec-09 14:00N 51°26' E 003°41'612.5
2017-Dec-09 13:30N 51°21' E 003°47'611.6
2017-Dec-09 13:01N 51°23' E 003°56'4 8.6
2017-Dec-09 12:31N 51°25' E 004°02'510.9
2017-Dec-09 12:00N 51°24' E 004°11'5 9.3
2017-Dec-09 11:29N 51°21' E 004°17'0 0.2
2017-Dec-09 10:58N 51°21' E 004°17'0 0.0
2017-Dec-09 10:30N 51°21' E 004°17'0 0.0
2017-Dec-09 10:00N 51°21' E 004°17'2 4.1
2017-Dec-09 09:30N 51°19' E 004°19'3 6.6
2017-Dec-09 09:00N 51°16' E 004°21'3 5.2
2017-Dec-09 08:30N 51°15' E 004°24'1 1.8
2017-Dec-09 07:59N 51°16' E 004°24'0 0.0
2017-Dec-09 07:28N 51°16' E 004°24'0 0.0
2017-Dec-09 06:58N 51°16' E 004°24'0 0.0
2017-Dec-09 06:25N 51°16' E 004°24'0 0.0
2017-Dec-09 05:58N 51°16' E 004°24'0 0.0
2017-Dec-09 05:28N 51°16' E 004°24'0 0.0
2017-Dec-09 04:57N 51°16' E 004°24'0 0.0
2017-Dec-09 04:30N 51°16' E 004°24'0 0.0
2017-Dec-09 04:00N 51°16' E 004°24'0 0.0
2017-Dec-09 03:30N 51°16' E 004°24'0 0.0
2017-Dec-09 02:59N 51°16' E 004°24'0 0.0
2017-Dec-09 02:29N 51°16' E 004°24'0 0.0
2017-Dec-09 01:56N 51°16' E 004°24'0 0.0
2017-Dec-09 01:29N 51°16' E 004°24'0 0.0
2017-Dec-09 00:59N 51°16' E 004°24'0 0.0
2017-Dec-09 00:28N 51°16' E 004°24'0 0.0
2017-Dec-08 23:58N 51°16' E 004°24'0 0.0
2017-Dec-08 23:28N 51°16' E 004°24'0 0.0
2017-Dec-08 22:55N 51°16' E 004°24'0 0.0
2017-Dec-08 22:28N 51°16' E 004°24'0 0.0
2017-Dec-08 22:00N 51°16' E 004°24'0 0.0
2017-Dec-08 21:30N 51°16' E 004°24'0 0.0
2017-Dec-08 21:00N 51°16' E 004°24'0 0.0
2017-Dec-08 20:30N 51°16' E 004°24'0 0.0
2017-Dec-08 19:59N 51°16' E 004°24'0 0.0
2017-Dec-08 19:29N 51°16' E 004°24'0 0.0
2017-Dec-08 18:59N 51°16' E 004°24'0 0.0
2017-Dec-08 18:29N 51°16' E 004°24'0 0.0
2017-Dec-08 17:59N 51°16' E 004°24'0 0.0
2017-Dec-08 17:28N 51°16' E 004°24'0 0.0
2017-Dec-08 16:58N 51°16' E 004°24'0 0.0
2017-Dec-08 16:28N 51°16' E 004°24'0 0.0
2017-Dec-08 15:55N 51°16' E 004°24'0 0.0
2017-Dec-08 15:27N 51°16' E 004°24'0 0.0
2017-Dec-08 15:00N 51°16' E 004°24'0 0.0
2017-Dec-08 14:27N 51°16' E 004°24'0 0.0
2017-Dec-08 13:56N 51°16' E 004°24'0 0.0
2017-Dec-08 13:30N 51°16' E 004°24'0 0.0
2017-Dec-08 12:56N 51°16' E 004°24'0 0.0
2017-Dec-08 12:26N 51°16' E 004°24'0 0.0
2017-Dec-08 11:59N 51°16' E 004°24'0 0.0
2017-Dec-08 11:29N 51°16' E 004°24'0 0.0
2017-Dec-08 10:59N 51°16' E 004°24'0 0.0
2017-Dec-08 10:25N 51°16' E 004°24'0 0.0
2017-Dec-08 09:55N 51°16' E 004°24'0 0.0
2017-Dec-08 09:25N 51°16' E 004°24'0 0.0
2017-Dec-08 08:52N 51°16' E 004°24'0 0.0
2017-Dec-08 08:21N 51°16' E 004°24'0 0.0
2017-Dec-08 07:48N 51°16' E 004°24'0 0.0
2017-Dec-08 07:30N 51°16' E 004°24'0 0.0
2017-Dec-08 07:00N 51°16' E 004°24'0 0.0
2017-Dec-08 06:30N 51°16' E 004°24'0 0.0
2017-Dec-08 05:56N 51°16' E 004°24'0 0.0
2017-Dec-08 05:26N 51°16' E 004°24'0 0.0
2017-Dec-08 04:56N 51°16' E 004°24'0 0.0
2017-Dec-08 04:27N 51°16' E 004°24'1 2.2
2017-Dec-08 04:01N 51°15' E 004°24'2 4.2
2017-Dec-08 03:31N 51°16' E 004°21'1 2.1
2017-Dec-08 03:00N 51°17' E 004°20'0 0.0
2017-Dec-08 02:31N 51°17' E 004°20'0 0.0
2017-Dec-08 02:00N 51°17' E 004°20'2 3.6
2017-Dec-08 01:31N 51°18' E 004°18'4 8.8
2017-Dec-08 01:00N 51°21' E 004°14'4 7.6
2017-Dec-08 00:30N 51°22' E 004°08'5 9.7
2017-Dec-08 00:00N 51°25' E 004°02'4 7.8
2017-Dec-07 23:30N 51°23' E 003°57'612.1
2017-Dec-07 23:00N 51°21' E 003°47'612.0
2017-Dec-07 22:30N 51°26' E 003°41'5 9.8
2017-Dec-07 22:00N 51°25' E 003°33'613.1
2017-Dec-07 21:30N 51°24' E 003°23'815.1
2017-Dec-07 21:00N 51°24' E 003°11'715.0
2017-Dec-07 20:31N 51°23' E 002°59'815.9
2017-Dec-07 20:01N 51°22' E 002°47'610.3
2017-Dec-07 19:28N 51°22' E 002°38'610.1
2017-Dec-07 18:55N 51°22' E 002°29'817.6
2017-Dec-07 18:29N 51°18' E 002°18'918.4
2017-Dec-07 18:00N 51°14' E 002°06'918.7
2017-Dec-07 17:31N 51°09' E 001°53'1019.2
2017-Dec-07 17:00N 51°04' E 001°40'1019.4
2017-Dec-07 16:31N 50°57' E 001°30'1018.9
2017-Dec-07 15:58N 50°47' E 001°23'4518.6
2017-Dec-07 13:33N 50°25' E 000°21'119.9
2017-Dec-07 13:29N 50°25' E 000°20'1020.2
2017-Dec-07 13:00N 50°23' E 000°05'1019.1
2017-Dec-07 12:30N 50°21' W 000°10'918.9
2017-Dec-07 12:00N 50°26' W 000°23'1019.4
2017-Dec-07 11:30N 50°31' W 000°36'1019.5
2017-Dec-07 11:00N 50°37' W 000°49'714.9
2017-Dec-07 10:30N 50°42' W 000°58'510.7
2017-Dec-07 10:01N 50°44' W 001°05'4 8.1
2017-Dec-07 09:30N 50°48' W 001°07'1 1.7
2017-Dec-07 09:01N 50°49' W 001°06'0 0.3
2017-Dec-07 08:28N 50°49' W 001°05'0 0.0
2017-Dec-07 07:58N 50°49' W 001°05'0 0.0
2017-Dec-07 07:28N 50°49' W 001°05'0 0.0
2017-Dec-07 07:00N 50°49' W 001°05'0 0.0
2017-Dec-07 06:25N 50°49' W 001°05'0 0.0
2017-Dec-07 06:00N 50°49' W 001°05'0 0.0
2017-Dec-07 05:30N 50°49' W 001°05'0 0.0
2017-Dec-07 05:00N 50°49' W 001°05'0 0.0
2017-Dec-07 04:30N 50°49' W 001°05'0 0.0
2017-Dec-07 03:59N 50°49' W 001°05'0 0.0
2017-Dec-07 03:29N 50°49' W 001°05'0 0.0
2017-Dec-07 02:59N 50°49' W 001°05'0 0.0
2017-Dec-07 02:29N 50°49' W 001°05'0 0.0
2017-Dec-07 01:59N 50°49' W 001°05'0 0.0
2017-Dec-07 01:28N 50°49' W 001°05'0 0.0
2017-Dec-07 00:58N 50°49' W 001°05'0 0.0
2017-Dec-07 00:30N 50°49' W 001°05'0 0.0
2017-Dec-06 23:58N 50°49' W 001°05'0 0.0
2017-Dec-06 23:30N 50°49' W 001°05'0 0.0
2017-Dec-06 23:00N 50°49' W 001°05'0 0.0
2017-Dec-06 22:30N 50°49' W 001°05'0 0.0
2017-Dec-06 22:00N 50°49' W 001°05'0 0.0
2017-Dec-06 21:30N 50°49' W 001°05'0 0.0
2017-Dec-06 20:59N 50°49' W 001°05'  
Track history (hours):
 
Tides and Currents Weather Stations Pressure Air Temp Water Temp Dewpoint Dewpoint Depression Visibility Wind Speed Wind Dir Waves Ship Positions

P&o Nedlloyd Regina

Last reported at 2017-Dec-15 12:00 UTC. Time now 2017-Dec-15 12:07 UTC.
Position N 50°28' W 000°13'.

Length 210 m; draft 8.1 m.

Type: Ship (hazmat cat A). MMSI: 636016796.

Date/timePositionNaut miles runAvg speedWind from/ knotsBaromVisibWave heightAir tempDewpointWater temp
2017-Dec-15 12:00N 50°28' W 000°13'714.6
2017-Dec-15 11:30N 50°30' W 000°02'714.6
2017-Dec-15 11:01N 50°32' E 000°09'714.5
2017-Dec-15 10:30N 50°34' E 000°20'714.1
2017-Dec-15 10:00N 50°36' E 000°31'713.5
2017-Dec-15 09:30N 50°39' E 000°40'713.5
2017-Dec-15 09:00N 50°43' E 000°48'713.0
2017-Dec-15 08:30N 50°47' E 000°57'612.9
2017-Dec-15 08:01N 50°51' E 001°05'813.3
2017-Dec-15 07:26N 50°56' E 001°13'613.8
2017-Dec-15 07:00N 51°01' E 001°20'714.7
2017-Dec-15 06:30N 51°05' E 001°28'815.7
2017-Dec-15 06:00N 51°10' E 001°38'815.3
2017-Dec-15 05:30N 51°16' E 001°46'815.3
2017-Dec-15 05:00N 51°23' E 001°51'713.8
2017-Dec-15 04:30N 51°30' E 001°51'714.3
2017-Dec-15 04:01N 51°36' E 001°46'1812.1
2017-Dec-15 02:31N 51°53' E 001°34'11 7.1
2017-Dec-15 01:00N 51°57' E 001°18'0 0.0
2017-Dec-15 00:30N 51°57' E 001°18'0 0.0
2017-Dec-14 18:30N 51°57' E 001°18'0 0.0
2017-Dec-14 18:00N 51°57' E 001°18'0 0.0
2017-Dec-14 17:30N 51°57' E 001°18'0 0.0
2017-Dec-14 16:59N 51°57' E 001°18'0 0.0
2017-Dec-14 16:29N 51°57' E 001°18'0 0.0
2017-Dec-14 16:00N 51°57' E 001°18'7 7.0
2017-Dec-14 15:00N 51°56' E 001°29'611.4
2017-Dec-14 14:31N 51°52' E 001°35'4 7.9
2017-Dec-14 14:00N 51°51' E 001°41'3 6.2
2017-Dec-14 13:30N 51°54' E 001°44'1 2.5
2017-Dec-14 12:59N 51°55' E 001°42'0 0.1
2017-Dec-14 12:29N 51°55' E 001°42'0 0.0
2017-Dec-14 11:59N 51°55' E 001°42'0 0.0
2017-Dec-14 11:28N 51°55' E 001°42'0 0.0
2017-Dec-14 10:58N 51°55' E 001°42'0 0.0
2017-Dec-14 10:28N 51°55' E 001°42'0 0.0
2017-Dec-14 09:58N 51°55' E 001°42'0 0.1
2017-Dec-14 09:30N 51°55' E 001°42'0 0.0
2017-Dec-14 09:00N 51°55' E 001°42'0 0.0
2017-Dec-14 08:30N 51°55' E 001°42'0 0.0
2017-Dec-14 08:00N 51°55' E 001°42'0 0.0
2017-Dec-14 07:30N 51°55' E 001°42'0 0.0
2017-Dec-14 06:59N 51°55' E 001°42'0 0.0
2017-Dec-14 06:29N 51°55' E 001°42'0 0.0
2017-Dec-14 05:59N 51°55' E 001°42'0 0.0
2017-Dec-14 05:29N 51°55' E 001°42'0 0.0
2017-Dec-14 04:59N 51°55' E 001°42'0 0.0
2017-Dec-14 04:28N 51°55' E 001°42'0 0.0
2017-Dec-14 03:58N 51°55' E 001°42'0 0.0
2017-Dec-14 03:28N 51°55' E 001°42'0 0.0
2017-Dec-14 02:58N 51°55' E 001°42'0 0.0
2017-Dec-14 02:30N 51°55' E 001°42'0 0.0
2017-Dec-14 02:00N 51°55' E 001°42'0 0.0
2017-Dec-14 01:30N 51°55' E 001°42'0 0.0
2017-Dec-14 01:00N 51°55' E 001°42'0 0.0
2017-Dec-14 00:30N 51°55' E 001°42'0 0.1
2017-Dec-13 23:59N 51°55' E 001°42'0 0.0
2017-Dec-13 23:29N 51°55' E 001°42'0 0.0
2017-Dec-13 22:59N 51°55' E 001°42'0 0.0
2017-Dec-13 22:29N 51°55' E 001°42'0 0.0
2017-Dec-13 21:58N 51°55' E 001°42'0 0.0
2017-Dec-13 21:28N 51°55' E 001°42'0 0.0
2017-Dec-13 20:58N 51°55' E 001°42'0 0.0
2017-Dec-13 20:28N 51°55' E 001°42'0 0.0
2017-Dec-13 19:58N 51°55' E 001°42'0 0.0
2017-Dec-13 19:30N 51°55' E 001°42'0 0.0
2017-Dec-13 19:00N 51°55' E 001°42'0 0.0
2017-Dec-13 18:30N 51°55' E 001°42'0 0.1
2017-Dec-13 18:00N 51°54' E 001°42'0 0.0
2017-Dec-13 17:30N 51°54' E 001°42'0 0.1
2017-Dec-13 16:59N 51°55' E 001°42'0 0.1
2017-Dec-13 16:29N 51°55' E 001°42'0 0.1
2017-Dec-13 15:59N 51°55' E 001°42'0 0.0
2017-Dec-13 15:29N 51°55' E 001°42'0 0.0
2017-Dec-13 14:58N 51°55' E 001°42'0 0.0
2017-Dec-13 14:28N 51°55' E 001°42'0 0.0
2017-Dec-13 13:58N 51°55' E 001°42'0 0.0
2017-Dec-13 13:28N 51°55' E 001°42'0 0.0
2017-Dec-13 12:58N 51°55' E 001°42'0 0.0
2017-Dec-13 12:30N 51°55' E 001°42'0 0.0
2017-Dec-13 12:00N 51°55' E 001°42'0 0.1
2017-Dec-13 11:30N 51°55' E 001°42'1 1.3
2017-Dec-13 11:00N 51°54' E 001°43'5 9.7
2017-Dec-13 10:31N 51°51' E 001°49'510.8
2017-Dec-13 10:00N 51°51' E 001°57'612.2
2017-Dec-13 09:30N 51°54' E 002°06'39 5.8
2017-Dec-13 02:43N 52°03' E 003°08'7 9.5
2017-Dec-13 01:58N 52°03' E 003°20'6 9.5
2017-Dec-13 01:19N 52°03' E 003°30'6 9.5
2017-Dec-13 00:41N 52°03' E 003°40'2 8.9
2017-Dec-13 00:24N 52°03' E 003°44'4 8.6
2017-Dec-12 23:59N 52°03' E 003°50'4 7.7
2017-Dec-12 23:30N 52°02' E 003°55'4 8.2
2017-Dec-12 23:00N 52°00' E 004°01'3 5.7
2017-Dec-12 22:30N 51°58' E 004°04'2 4.6
2017-Dec-12 22:00N 51°59' E 004°00'1 2.4
2017-Dec-12 21:27N 51°57' E 004°00'0 0.0
2017-Dec-12 21:00N 51°57' E 004°00'0 0.0
2017-Dec-12 20:27N 51°57' E 004°00'0 0.0
2017-Dec-12 19:59N 51°57' E 004°00'0 0.0
2017-Dec-12 19:29N 51°57' E 004°00'0 0.0
2017-Dec-12 18:59N 51°57' E 004°00'0 0.0
2017-Dec-12 18:29N 51°57' E 004°00'0 0.0
2017-Dec-12 17:56N 51°57' E 004°00'0 0.0
2017-Dec-12 17:28N 51°57' E 004°00'0 0.0
2017-Dec-12 16:58N 51°57' E 004°00'0 0.0
2017-Dec-12 16:25N 51°57' E 004°00'0 1.2
2017-Dec-12 16:00N 51°58' E 004°00'2 3.6
2017-Dec-12 15:30N 51°58' E 004°03'1 2.1
2017-Dec-12 15:00N 51°59' E 004°04'5 9.3
2017-Dec-12 14:30N 51°60' E 003°57'612.3
2017-Dec-12 14:00N 52°00' E 003°47'611.2
2017-Dec-12 13:30N 52°03' E 003°39'1110.1
2017-Dec-12 12:28N 52°14' E 003°39'1 1.3
2017-Dec-12 12:00N 52°14' E 003°39'2 0.8
2017-Dec-12 09:17N 52°14' E 003°35'310.0
2017-Dec-12 09:00N 52°16' E 003°33'3415.1
2017-Dec-12 06:45N 52°49' E 003°49'1418.9
2017-Dec-12 05:59N 52°60' E 004°05'4318.1
2017-Dec-12 03:38N 53°32' E 004°51'317.7
2017-Dec-12 03:28N 53°33' E 004°56'817.3
2017-Dec-12 03:00N 53°36' E 005°08'1017.1
2017-Dec-12 02:27N 53°39' E 005°24'717.1
2017-Dec-12 02:00N 53°41' E 005°36'7918.1
2017-Dec-11 21:38N 54°01' E 007°46'419.0
2017-Dec-11 21:25N 54°01' E 007°53'818.8
2017-Dec-11 20:59N 54°00' E 008°07'714.2
2017-Dec-11 20:30N 54°00' E 008°18'1019.5
2017-Dec-11 20:00N 53°58' E 008°34'816.7
2017-Dec-11 19:30N 53°52' E 008°44'714.7
2017-Dec-11 19:00N 53°51' E 008°57'714.5
2017-Dec-11 18:30N 53°53' E 009°08'4 7.6
2017-Dec-11 18:00N 53°53' E 009°15'612.5
2017-Dec-11 17:30N 53°48' E 009°23'612.0
2017-Dec-11 17:01N 53°43' E 009°28'611.1
2017-Dec-11 16:31N 53°38' E 009°32'714.3
2017-Dec-11 16:00N 53°34' E 009°42'611.7
2017-Dec-11 15:30N 53°33' E 009°51'5 9.6
2017-Dec-11 15:00N 53°32' E 009°59'0 0.8
2017-Dec-11 14:28N 53°32' E 009°60'0 0.0
2017-Dec-11 13:58N 53°32' E 009°60'0 0.0
2017-Dec-11 13:28N 53°32' E 009°60'0 0.0
2017-Dec-11 12:58N 53°32' E 009°60'0 0.0
2017-Dec-11 12:28N 53°32' E 009°60'0 0.0
2017-Dec-11 12:00N 53°32' E 009°60'0 0.0
2017-Dec-11 11:30N 53°32' E 009°60'0 0.0
2017-Dec-11 11:00N 53°32' E 009°60'0 0.0
2017-Dec-11 10:30N 53°32' E 009°60'0 0.0
2017-Dec-11 09:56N 53°32' E 009°60'0 0.0
2017-Dec-11 09:29N 53°32' E 009°60'0 0.0
2017-Dec-11 08:59N 53°32' E 009°60'0 0.0
2017-Dec-11 08:29N 53°32' E 009°60'0 0.0
2017-Dec-11 07:59N 53°32' E 009°60'0 0.0
2017-Dec-11 07:28N 53°32' E 009°60'0 0.0
2017-Dec-11 06:58N 53°32' E 009°60'0 0.0
2017-Dec-11 06:28N 53°32' E 009°60'0 0.0
2017-Dec-11 05:58N 53°32' E 009°60'0 0.0
2017-Dec-11 05:31N 53°32' E 009°60'0 0.0
2017-Dec-11 05:00N 53°32' E 009°60'0 0.8
2017-Dec-11 04:31N 53°32' E 009°59'2 5.0
2017-Dec-11 04:01N 53°32' E 009°55'510.0
2017-Dec-11 03:31N 53°33' E 009°47'612.3
2017-Dec-11 03:00N 53°35' E 009°37'611.7
2017-Dec-11 02:30N 53°40' E 009°31'613.0
2017-Dec-11 02:00N 53°45' E 009°25'714.1
2017-Dec-11 01:30N 53°51' E 009°19'612.8
2017-Dec-11 01:00N 53°53' E 009°08'510.4
2017-Dec-11 00:30N 53°51' E 008°60'714.7
2017-Dec-11 00:00N 53°50' E 008°48'5 9.7
2017-Dec-10 23:30N 53°54' E 008°42'713.7
2017-Dec-10 23:00N 53°58' E 008°33'714.2
2017-Dec-10 22:31N 53°59' E 008°21'712.1
2017-Dec-10 21:57N 53°60' E 008°09'4 9.8
2017-Dec-10 21:30N 53°59' E 008°02'5 9.4
2017-Dec-10 21:00N 53°58' E 007°54'86 9.9
2017-Dec-10 12:18N 53°36' E 005°33'512.2
2017-Dec-10 11:55N 53°35' E 005°26'512.1
2017-Dec-10 11:30N 53°34' E 005°17'611.8
2017-Dec-10 11:00N 53°32' E 005°08'611.8
2017-Dec-10 10:30N 53°30' E 004°59'612.0
2017-Dec-10 10:00N 53°28' E 004°49'611.9
2017-Dec-10 09:30N 53°25' E 004°41'612.0
2017-Dec-10 08:59N 53°19' E 004°38'612.5
2017-Dec-10 08:30N 53°13' E 004°34'612.6
2017-Dec-10 08:00N 53°08' E 004°29'612.5
2017-Dec-10 07:30N 53°02' E 004°23'612.3
2017-Dec-10 07:00N 52°57' E 004°20'612.1
2017-Dec-10 06:30N 52°51' E 004°15'611.5
2017-Dec-10 06:00N 52°47' E 004°10'510.9
2017-Dec-10 05:30N 52°43' E 004°03'510.7
2017-Dec-10 05:00N 52°39' E 003°57'510.6
2017-Dec-10 04:30N 52°35' E 003°51'510.4
2017-Dec-10 04:00N 52°31' E 003°45'510.1
2017-Dec-10 03:29N 52°27' E 003°40'42 8.5
2017-Dec-09 22:35N 51°49' E 003°11'110.3
2017-Dec-09 22:28N 51°50' E 003°13'2 3.7
2017-Dec-09 21:56N 51°51' E 003°15'1 1.5
2017-Dec-09 21:22N 51°51' E 003°14'1 1.7
2017-Dec-09 20:55N 51°51' E 003°13'1 0.8
2017-Dec-09 19:30N 51°52' E 003°14'19 4.7
2017-Dec-09 15:27N 51°34' E 003°25'611.8
2017-Dec-09 14:59N 51°29' E 003°30'510.6
2017-Dec-09 14:30N 51°26' E 003°36'3 6.2
2017-Dec-09 14:00N 51°26' E 003°41'612.5
2017-Dec-09 13:30N 51°21' E 003°47'611.6
2017-Dec-09 13:01N 51°23' E 003°56'4 8.6
2017-Dec-09 12:31N 51°25' E 004°02'510.9
2017-Dec-09 12:00N 51°24' E 004°11'5 9.3
2017-Dec-09 11:29N 51°21' E 004°17'0 0.2
2017-Dec-09 10:58N 51°21' E 004°17'0 0.0
2017-Dec-09 10:30N 51°21' E 004°17'0 0.0
2017-Dec-09 10:00N 51°21' E 004°17'2 4.1
2017-Dec-09 09:30N 51°19' E 004°19'3 6.6
2017-Dec-09 09:00N 51°16' E 004°21'3 5.2
2017-Dec-09 08:30N 51°15' E 004°24'1 1.8
2017-Dec-09 07:59N 51°16' E 004°24'0 0.0
2017-Dec-09 07:28N 51°16' E 004°24'0 0.0
2017-Dec-09 06:58N 51°16' E 004°24'0 0.0
2017-Dec-09 06:25N 51°16' E 004°24'0 0.0
2017-Dec-09 05:58N 51°16' E 004°24'0 0.0
2017-Dec-09 05:28N 51°16' E 004°24'0 0.0
2017-Dec-09 04:57N 51°16' E 004°24'0 0.0
2017-Dec-09 04:30N 51°16' E 004°24'0 0.0
2017-Dec-09 04:00N 51°16' E 004°24'0 0.0
2017-Dec-09 03:30N 51°16' E 004°24'0 0.0
2017-Dec-09 02:59N 51°16' E 004°24'0 0.0
2017-Dec-09 02:29N 51°16' E 004°24'0 0.0
2017-Dec-09 01:56N 51°16' E 004°24'0 0.0
2017-Dec-09 01:29N 51°16' E 004°24'0 0.0
2017-Dec-09 00:59N 51°16' E 004°24'0 0.0
2017-Dec-09 00:28N 51°16' E 004°24'0 0.0
2017-Dec-08 23:58N 51°16' E 004°24'0 0.0
2017-Dec-08 23:28N 51°16' E 004°24'0 0.0
2017-Dec-08 22:55N 51°16' E 004°24'0 0.0
2017-Dec-08 22:28N 51°16' E 004°24'0 0.0
2017-Dec-08 22:00N 51°16' E 004°24'0 0.0
2017-Dec-08 21:30N 51°16' E 004°24'0 0.0
2017-Dec-08 21:00N 51°16' E 004°24'0 0.0
2017-Dec-08 20:30N 51°16' E 004°24'0 0.0
2017-Dec-08 19:59N 51°16' E 004°24'0 0.0
2017-Dec-08 19:29N 51°16' E 004°24'0 0.0
2017-Dec-08 18:59N 51°16' E 004°24'0 0.0
2017-Dec-08 18:29N 51°16' E 004°24'0 0.0
2017-Dec-08 17:59N 51°16' E 004°24'0 0.0
2017-Dec-08 17:28N 51°16' E 004°24'0 0.0
2017-Dec-08 16:58N 51°16' E 004°24'0 0.0
2017-Dec-08 16:28N 51°16' E 004°24'0 0.0
2017-Dec-08 15:55N 51°16' E 004°24'0 0.0
2017-Dec-08 15:27N 51°16' E 004°24'0 0.0
2017-Dec-08 15:00N 51°16' E 004°24'0 0.0
2017-Dec-08 14:27N 51°16' E 004°24'0 0.0
2017-Dec-08 13:56N 51°16' E 004°24'0 0.0
2017-Dec-08 13:30N 51°16' E 004°24'0 0.0
2017-Dec-08 12:56N 51°16' E 004°24'0 0.0
2017-Dec-08 12:26N 51°16' E 004°24'0 0.0
2017-Dec-08 11:59N 51°16' E 004°24'0 0.0
2017-Dec-08 11:29N 51°16' E 004°24'0 0.0
2017-Dec-08 10:59N 51°16' E 004°24'0 0.0
2017-Dec-08 10:25N 51°16' E 004°24'0 0.0
2017-Dec-08 09:55N 51°16' E 004°24'0 0.0
2017-Dec-08 09:25N 51°16' E 004°24'0 0.0
2017-Dec-08 08:52N 51°16' E 004°24'0 0.0
2017-Dec-08 08:21N 51°16' E 004°24'0 0.0
2017-Dec-08 07:48N 51°16' E 004°24'0 0.0
2017-Dec-08 07:30N 51°16' E 004°24'0 0.0
2017-Dec-08 07:00N 51°16' E 004°24'0 0.0
2017-Dec-08 06:30N 51°16' E 004°24'0 0.0
2017-Dec-08 05:56N 51°16' E 004°24'0 0.0
2017-Dec-08 05:26N 51°16' E 004°24'0 0.0
2017-Dec-08 04:56N 51°16' E 004°24'0 0.0
2017-Dec-08 04:27N 51°16' E 004°24'1 2.2
2017-Dec-08 04:01N 51°15' E 004°24'2 4.2
2017-Dec-08 03:31N 51°16' E 004°21'1 2.1
2017-Dec-08 03:00N 51°17' E 004°20'0 0.0
2017-Dec-08 02:31N 51°17' E 004°20'0 0.0
2017-Dec-08 02:00N 51°17' E 004°20'2 3.6
2017-Dec-08 01:31N 51°18' E 004°18'4 8.8
2017-Dec-08 01:00N 51°21' E 004°14'4 7.6
2017-Dec-08 00:30N 51°22' E 004°08'5 9.7
2017-Dec-08 00:00N 51°25' E 004°02'4 7.8
2017-Dec-07 23:30N 51°23' E 003°57'612.1
2017-Dec-07 23:00N 51°21' E 003°47'612.0
2017-Dec-07 22:30N 51°26' E 003°41'5 9.8
2017-Dec-07 22:00N 51°25' E 003°33'613.1
2017-Dec-07 21:30N 51°24' E 003°23'815.1
2017-Dec-07 21:00N 51°24' E 003°11'715.0
2017-Dec-07 20:31N 51°23' E 002°59'815.9
2017-Dec-07 20:01N 51°22' E 002°47'610.3
2017-Dec-07 19:28N 51°22' E 002°38'610.1
2017-Dec-07 18:55N 51°22' E 002°29'817.6
2017-Dec-07 18:29N 51°18' E 002°18'918.4
2017-Dec-07 18:00N 51°14' E 002°06'918.7
2017-Dec-07 17:31N 51°09' E 001°53'1019.2
2017-Dec-07 17:00N 51°04' E 001°40'1019.4
2017-Dec-07 16:31N 50°57' E 001°30'1018.9
2017-Dec-07 15:58N 50°47' E 001°23'4518.6
2017-Dec-07 13:33N 50°25' E 000°21'119.9
2017-Dec-07 13:29N 50°25' E 000°20'1020.2
2017-Dec-07 13:00N 50°23' E 000°05'1019.1
2017-Dec-07 12:30N 50°21' W 000°10'918.9
2017-Dec-07 12:00N 50°26' W 000°23'1019.4
2017-Dec-07 11:30N 50°31' W 000°36'1019.5
2017-Dec-07 11:00N 50°37' W 000°49'714.9
2017-Dec-07 10:30N 50°42' W 000°58'510.7
2017-Dec-07 10:01N 50°44' W 001°05'4 8.1
2017-Dec-07 09:30N 50°48' W 001°07'1 1.7
2017-Dec-07 09:01N 50°49' W 001°06'0 0.3
2017-Dec-07 08:28N 50°49' W 001°05'0 0.0
2017-Dec-07 07:58N 50°49' W 001°05'0 0.0
2017-Dec-07 07:28N 50°49' W 001°05'0 0.0
2017-Dec-07 07:00N 50°49' W 001°05'0 0.0
2017-Dec-07 06:25N 50°49' W 001°05'0 0.0
2017-Dec-07 06:00N 50°49' W 001°05'0 0.0
2017-Dec-07 05:30N 50°49' W 001°05'0 0.0
2017-Dec-07 05:00N 50°49' W 001°05'0 0.0
2017-Dec-07 04:30N 50°49' W 001°05'0 0.0
2017-Dec-07 03:59N 50°49' W 001°05'0 0.0
2017-Dec-07 03:29N 50°49' W 001°05'0 0.0
2017-Dec-07 02:59N 50°49' W 001°05'0 0.0
2017-Dec-07 02:29N 50°49' W 001°05'0 0.0
2017-Dec-07 01:59N 50°49' W 001°05'0 0.0
2017-Dec-07 01:28N 50°49' W 001°05'0 0.0
2017-Dec-07 00:58N 50°49' W 001°05'0 0.0
2017-Dec-07 00:30N 50°49' W 001°05'0 0.0
2017-Dec-06 23:58N 50°49' W 001°05'0 0.0
2017-Dec-06 23:30N 50°49' W 001°05'0 0.0
2017-Dec-06 23:00N 50°49' W 001°05'0 0.0
2017-Dec-06 22:30N 50°49' W 001°05'0 0.0
2017-Dec-06 22:00N 50°49' W 001°05'0 0.0
2017-Dec-06 21:30N 50°49' W 001°05'0 0.0
2017-Dec-06 20:59N 50°49' W 001°05'  

Dump ship's entire track history